createdAt,value
2016-04-02T00:00:20.876Z,20
2016-04-02T00:01:20.896Z,19.9
2016-04-02T00:02:20.898Z,19.9
2016-04-02T00:03:20.901Z,19.9
2016-04-02T00:04:20.904Z,19.7
2016-04-02T00:05:20.906Z,20.09
2016-04-02T00:06:20.924Z,19.7
2016-04-02T00:07:20.927Z,19.79
2016-04-02T00:08:20.929Z,19.9
2016-04-02T00:09:20.932Z,20
2016-04-02T00:10:20.950Z,19.7
2016-04-02T00:11:20.954Z,20.38
2016-04-02T00:12:20.956Z,19.98
2016-04-02T00:13:20.959Z,19.6
2016-04-02T00:14:20.962Z,19.9
2016-04-02T00:15:20.964Z,19.8
2016-04-02T00:16:20.982Z,19.98
2016-04-02T00:17:20.985Z,19.9
2016-04-02T00:18:21.003Z,19.79
2016-04-02T00:19:21.006Z,20
2016-04-02T00:20:21.008Z,19.9
2016-04-02T00:21:21.012Z,19.89
2016-04-02T00:22:21.014Z,19.98
2016-04-02T00:23:21.017Z,19.98
2016-04-02T00:24:21.020Z,19.98
2016-04-02T00:25:21.038Z,19.89
2016-04-02T00:26:21.056Z,19.89
2016-04-02T00:27:21.044Z,19.89
2016-04-02T00:28:21.062Z,19.98
2016-04-02T00:29:21.049Z,19.89
2016-04-02T00:30:21.066Z,19.89
2016-04-02T00:31:21.069Z,19.89
2016-04-02T00:32:21.088Z,19.98
2016-04-02T00:33:21.090Z,19.89
2016-04-02T00:34:21.093Z,19.89
2016-04-02T00:35:21.101Z,19.79
2016-04-02T00:36:21.104Z,19.89
2016-04-02T00:37:21.106Z,19.98
2016-04-02T00:38:21.124Z,19.98
2016-04-02T00:39:21.127Z,20
2016-04-02T00:40:21.145Z,19.79
2016-04-02T00:41:21.133Z,19.89
2016-04-02T00:42:21.151Z,19.79
2016-04-02T00:43:21.153Z,19.89
2016-04-02T00:44:21.157Z,19.89
2016-04-02T00:45:21.175Z,19.98
2016-04-02T00:46:21.162Z,19.79
2016-04-02T00:47:21.180Z,20.18
2016-04-02T00:48:21.183Z,19.89
2016-04-02T00:49:21.186Z,19.79
2016-04-02T00:50:21.188Z,19.89
2016-04-02T00:51:21.191Z,20.18
2016-04-02T00:52:21.194Z,20.18
2016-04-02T00:53:21.211Z,19.7
2016-04-02T00:54:21.214Z,20.18
2016-04-02T00:55:21.217Z,19.89
2016-04-02T00:56:21.235Z,20.18
2016-04-02T00:57:21.254Z,20.18
2016-04-02T00:58:21.240Z,20.08
2016-04-02T00:59:21.244Z,20.18
2016-04-02T01:00:21.246Z,19.89
2016-04-02T01:01:21.249Z,19.89
2016-04-02T01:02:21.268Z,19.98
2016-04-02T01:03:21.270Z,19.98
2016-04-02T01:04:21.273Z,20.08
2016-04-02T01:05:21.291Z,20.08
2016-04-02T01:06:21.294Z,19.89
2016-04-02T01:07:21.312Z,19.98
2016-04-02T01:08:21.329Z,19.89
2016-04-02T01:09:21.318Z,20.08
2016-04-02T01:10:21.321Z,19.98
2016-04-02T01:11:21.323Z,19.89
2016-04-02T01:12:21.326Z,20.18
2016-04-02T01:13:21.328Z,20.08
2016-04-02T01:14:21.346Z,19.89
2016-04-02T01:15:21.333Z,19.98
2016-04-02T01:16:21.352Z,19.98
2016-04-02T01:17:21.354Z,19.89
2016-04-02T01:18:21.372Z,19.98
2016-04-02T01:19:21.375Z,19.89
2016-04-02T01:20:21.394Z,20.18
2016-04-02T01:21:21.381Z,19.89
2016-04-02T01:22:21.384Z,19.98
2016-04-02T01:23:21.465Z,20.28
2016-04-02T01:24:21.405Z,20.08
2016-04-02T01:25:21.407Z,19.88
2016-04-02T01:26:21.410Z,19.98
2016-04-02T01:27:21.413Z,20.18
2016-04-02T01:28:21.431Z,20.08
2016-04-02T01:29:21.434Z,19.98
2016-04-02T01:30:21.436Z,20.08
2016-04-02T01:31:21.455Z,19.88
2016-04-02T01:32:21.442Z,20.08
2016-04-02T01:33:21.460Z,19.88
2016-04-02T01:34:21.463Z,19.7
2016-04-02T01:35:21.482Z,19.98
2016-04-02T01:36:21.468Z,20.07
2016-04-02T01:37:21.471Z,19.98
2016-04-02T01:38:21.490Z,19.98
2016-04-02T01:39:21.492Z,19.98
2016-04-02T01:40:21.526Z,19.98
2016-04-02T01:41:21.498Z,19.88
2016-04-02T01:42:21.515Z,19.89
2016-04-02T01:43:21.518Z,19.89
2016-04-02T01:44:21.521Z,19.89
2016-04-02T01:45:21.539Z,19.98
2016-04-02T01:46:21.401Z,19.79
2016-04-02T01:47:21.545Z,19.7
2016-04-02T01:48:21.547Z,19.88
2016-04-02T01:49:21.550Z,19.98
2016-04-02T01:50:21.552Z,19.7
2016-04-02T01:51:21.555Z,19.7
2016-04-02T01:52:21.558Z,19.88
2016-04-02T01:53:21.576Z,19.68
2016-04-02T01:54:21.578Z,19.98
2016-04-02T01:55:21.597Z,19.98
2016-04-02T01:56:21.593Z,19.98
2016-04-02T01:57:21.584Z,19.78
2016-04-02T01:58:21.591Z,19.89
2016-04-02T01:59:21.582Z,20.07
2016-04-02T02:00:21.573Z,19.4
2016-04-02T02:01:21.569Z,19.21
2016-04-02T02:02:21.598Z,19.89
2016-04-02T02:03:21.566Z,19.89
2016-04-02T02:04:21.564Z,19.7
2016-04-02T02:05:21.578Z,19.4
2016-04-02T02:06:21.563Z,19.6
2016-04-02T02:07:21.579Z,20.28
2016-04-02T02:08:21.590Z,20.08
2016-04-02T02:09:21.591Z,19.68
2016-04-02T02:10:21.592Z,19.89
2016-04-02T02:11:21.594Z,20.07
2016-04-02T02:12:21.597Z,19.49
2016-04-02T02:13:21.615Z,19.78
2016-04-02T02:14:21.609Z,19.4
2016-04-02T02:15:21.628Z,19.78
2016-04-02T02:16:21.631Z,19.7
2016-04-02T02:17:21.633Z,20.28
2016-04-02T02:18:21.635Z,19.68
2016-04-02T02:19:21.637Z,19.89
2016-04-02T02:20:21.670Z,19.4
2016-04-02T02:21:21.642Z,19.79
2016-04-02T02:22:21.659Z,19.7
2016-04-02T02:23:21.678Z,19.88
2016-04-02T02:24:21.665Z,19.7
2016-04-02T02:25:21.683Z,19.4
2016-04-02T02:26:21.686Z,19.68
2016-04-02T02:27:21.705Z,19.78
2016-04-02T02:28:21.692Z,19.7
2016-04-02T02:29:21.710Z,19.98
2016-04-02T02:30:21.712Z,19.68
2016-04-02T02:31:21.715Z,19.5
2016-04-02T02:32:21.718Z,19.79
2016-04-02T02:33:21.737Z,19.79
2016-04-02T02:34:21.724Z,19.5
2016-04-02T02:35:21.726Z,19.7
2016-04-02T02:36:21.745Z,19.78
2016-04-02T02:37:21.748Z,19.6
2016-04-02T02:38:21.766Z,19.59
2016-04-02T02:39:21.753Z,19.6
2016-04-02T02:40:21.771Z,19.6
2016-04-02T02:41:21.790Z,19.89
2016-04-02T02:42:21.808Z,19.79
2016-04-02T02:43:21.780Z,19.49
2016-04-02T02:44:21.814Z,19.78
2016-04-02T02:45:21.800Z,19.98
2016-04-02T02:46:21.803Z,19.4
2016-04-02T02:47:21.806Z,19.5
2016-04-02T02:48:21.824Z,19.49
2016-04-02T02:49:21.811Z,19.79
2016-04-02T02:50:21.845Z,19.68
2016-04-02T02:51:21.848Z,19.6
2016-04-02T02:52:21.835Z,19.4
2016-04-02T02:53:21.853Z,19.7
2016-04-02T02:54:21.840Z,19.5
2016-04-02T02:55:21.859Z,19.6
2016-04-02T02:56:21.862Z,19.89
2016-04-02T02:57:21.880Z,19.4
2016-04-02T02:58:21.882Z,19.79
2016-04-02T02:59:21.885Z,19.01
2016-04-02T03:00:21.887Z,19.68
2016-04-02T03:01:21.906Z,19.5
2016-04-02T03:02:21.893Z,19.79
2016-04-02T03:03:21.895Z,19.4
2016-04-02T03:04:21.915Z,19.79
2016-04-02T03:05:21.917Z,19.02
2016-04-02T03:06:21.920Z,19.6
2016-04-02T03:07:21.923Z,19.02
2016-04-02T03:08:21.941Z,18.92
2016-04-02T03:09:21.943Z,19.21
2016-04-02T03:10:21.946Z,18.92
2016-04-02T03:11:21.948Z,19.12
2016-04-02T03:12:21.967Z,19.4
2016-04-02T03:13:21.970Z,19.12
2016-04-02T03:14:21.988Z,19.21
2016-04-02T03:15:21.975Z,19.02
2016-04-02T03:16:21.993Z,19.02
2016-04-02T03:17:21.980Z,19.02
2016-04-02T03:18:21.999Z,18.92
2016-04-02T03:19:22.002Z,19.02
2016-04-02T03:20:22.020Z,19.12
2016-04-02T03:21:22.007Z,18.92
2016-04-02T03:22:22.025Z,19.02
2016-04-02T03:23:22.074Z,19.02
2016-04-02T03:24:22.030Z,19.02
2016-04-02T03:25:22.033Z,19.21
2016-04-02T03:26:22.051Z,19.02
2016-04-02T03:27:22.054Z,19.12
2016-04-02T03:28:22.073Z,19.02
2016-04-02T03:29:22.060Z,19.7
2016-04-02T03:30:22.063Z,19.02
2016-04-02T03:31:22.081Z,19.02
2016-04-02T03:32:22.084Z,19.01
2016-04-02T03:33:22.086Z,18.92
2016-04-02T03:34:22.089Z,19.02
2016-04-02T03:35:22.107Z,19.02
2016-04-02T03:36:22.095Z,18.92
2016-04-02T03:37:22.112Z,19.12
2016-04-02T03:38:22.115Z,19.12
2016-04-02T03:39:22.117Z,19.12
2016-04-02T03:40:22.136Z,19.12
2016-04-02T03:41:22.123Z,19.31
2016-04-02T03:42:22.142Z,19.02
2016-04-02T03:43:22.145Z,19.1
2016-04-02T03:44:22.147Z,19.21
2016-04-02T03:45:22.150Z,19.01
2016-04-02T03:46:22.168Z,19.1
2016-04-02T03:47:22.170Z,18.91
2016-04-02T03:48:22.173Z,19.21
2016-04-02T03:49:22.175Z,19.01
2016-04-02T03:50:22.178Z,19.4
2016-04-02T03:51:22.196Z,19.02
2016-04-02T03:52:22.199Z,19.02
2016-04-02T03:53:22.202Z,19.4
2016-04-02T03:54:22.220Z,19.02
2016-04-02T03:55:22.223Z,19.02
2016-04-02T03:56:22.226Z,19.12
2016-04-02T03:57:22.229Z,19.2
2016-04-02T03:58:22.232Z,19.31
2016-04-02T03:59:22.234Z,19.31
2016-04-02T04:00:22.252Z,18.92
2016-04-02T04:01:22.254Z,19.01
2016-04-02T04:02:22.257Z,19.4
2016-04-02T04:03:22.276Z,19.02
2016-04-02T04:04:22.263Z,19.4
2016-04-02T04:05:22.282Z,19.12
2016-04-02T04:06:22.285Z,19.12
2016-04-02T04:07:22.287Z,19.12
2016-04-02T04:08:22.290Z,19.21
2016-04-02T04:09:22.309Z,19.01
2016-04-02T04:10:22.311Z,19.02
2016-04-02T04:11:22.314Z,19.02
2016-04-02T04:12:22.331Z,19.12
2016-04-02T04:13:22.319Z,19.02
2016-04-02T04:14:22.337Z,19.02
2016-04-02T04:15:22.339Z,19.02
2016-04-02T04:16:22.342Z,18.91
2016-04-02T04:17:22.360Z,19.12
2016-04-02T04:18:22.363Z,19.01
2016-04-02T04:19:22.366Z,18.91
2016-04-02T04:20:22.369Z,19.02
2016-04-02T04:21:22.372Z,19.02
2016-04-02T04:22:22.389Z,19.02
2016-04-02T04:23:22.392Z,19.12
2016-04-02T04:24:22.395Z,19.2
2016-04-02T04:25:22.397Z,18.91
2016-04-02T04:26:22.400Z,19.21
2016-04-02T04:27:22.402Z,19.02
2016-04-02T04:28:22.421Z,19.01
2016-04-02T04:29:22.423Z,19.02
2016-04-02T04:30:22.426Z,18.91
2016-04-02T04:31:22.445Z,19.49
2016-04-02T04:32:22.432Z,19.01
2016-04-02T04:33:22.450Z,19.01
2016-04-02T04:34:22.454Z,19.01
2016-04-02T04:35:22.456Z,19.01
2016-04-02T04:36:22.474Z,18.91
2016-04-02T04:37:22.462Z,19.01
2016-04-02T04:38:22.464Z,19.01
2016-04-02T04:39:22.482Z,18.91
2016-04-02T04:40:22.516Z,19.01
2016-04-02T04:41:22.487Z,19.01
2016-04-02T04:42:22.506Z,18.91
2016-04-02T04:43:22.509Z,19.3
2016-04-02T04:44:22.528Z,19.2
2016-04-02T04:45:22.514Z,19.1
2016-04-02T04:46:22.533Z,19.01
2016-04-02T04:47:22.536Z,18.91
2016-04-02T04:48:22.538Z,19.3
2016-04-02T04:49:22.541Z,19.01
2016-04-02T04:50:22.543Z,19.01
2016-04-02T04:51:22.546Z,19.2
2016-04-02T04:52:22.564Z,19.59
2016-04-02T04:53:22.566Z,19.2
2016-04-02T04:54:22.569Z,19.01
2016-04-02T04:55:22.588Z,19.01
2016-04-02T04:56:22.574Z,18.91
2016-04-02T04:57:22.594Z,19.98
2016-04-02T04:58:22.596Z,19.68
2016-04-02T04:59:22.599Z,19.59
2016-04-02T05:00:22.602Z,19.2
2016-04-02T05:01:22.619Z,19.59
2016-04-02T05:02:22.669Z,19.59
2016-04-02T05:03:22.624Z,19.68
2016-04-02T05:04:22.643Z,19.68
2016-04-02T05:05:22.646Z,19.49
2016-04-02T05:06:22.632Z,19.59
2016-04-02T05:07:22.651Z,19.2
2016-04-02T05:08:22.669Z,19.59
2016-04-02T05:09:22.656Z,19.68
2016-04-02T05:10:22.659Z,19.68
2016-04-02T05:11:22.677Z,19.4
2016-04-02T05:12:22.681Z,19.59
2016-04-02T05:13:22.683Z,19.88
2016-04-02T05:14:22.701Z,19.59
2016-04-02T05:15:22.689Z,19.59
2016-04-02T05:16:22.706Z,19.98
2016-04-02T05:17:22.709Z,19.59
2016-04-02T05:18:22.711Z,19.4
2016-04-02T05:19:22.714Z,19.49
2016-04-02T05:20:22.717Z,19.59
2016-04-02T05:21:22.736Z,19.59
2016-04-02T05:22:22.739Z,19.98
2016-04-02T05:23:22.742Z,19.59
2016-04-02T05:24:22.744Z,19.4
2016-04-02T05:25:22.763Z,19.78
2016-04-02T05:26:22.765Z,19.88
2016-04-02T05:27:22.768Z,19.49
2016-04-02T05:28:22.771Z,19.59
2016-04-02T05:29:22.788Z,19.68
2016-04-02T05:30:22.791Z,19.78
2016-04-02T05:31:22.793Z,19.68
2016-04-02T05:32:22.796Z,19.98
2016-04-02T05:33:22.799Z,19.68
2016-04-02T05:34:22.801Z,19.68
2016-04-02T05:35:22.804Z,19.98
2016-04-02T05:36:22.823Z,19.59
2016-04-02T05:37:22.841Z,19.59
2016-04-02T05:38:22.829Z,19.78
2016-04-02T05:39:22.846Z,19.98
2016-04-02T05:40:22.849Z,19.68
2016-04-02T05:41:22.851Z,19.49
2016-04-02T05:42:22.854Z,19.49
2016-04-02T05:43:22.873Z,19.49
2016-04-02T05:44:22.859Z,19.59
2016-04-02T05:45:22.878Z,19.88
2016-04-02T05:46:22.880Z,19.78
2016-04-02T05:47:22.883Z,19.68
2016-04-02T05:48:22.902Z,19.59
2016-04-02T05:49:22.889Z,19.78
2016-04-02T05:50:22.908Z,19.49
2016-04-02T05:51:22.911Z,19.88
2016-04-02T05:52:22.928Z,19.58
2016-04-02T05:53:22.916Z,19.58
2016-04-02T05:54:22.919Z,19.78
2016-04-02T05:55:22.936Z,19.59
2016-04-02T05:56:22.939Z,19.87
2016-04-02T05:57:22.941Z,19.78
2016-04-02T05:58:22.960Z,19.88
2016-04-02T05:59:22.963Z,19.87
2016-04-02T06:00:22.966Z,19.77
2016-04-02T06:01:22.969Z,19.78
2016-04-02T06:02:22.971Z,19.48
2016-04-02T06:03:22.974Z,19.77
2016-04-02T06:04:22.993Z,19.88
2016-04-02T06:05:22.995Z,19.88
2016-04-02T06:06:22.998Z,19.78
2016-04-02T06:07:23.000Z,20.06
2016-04-02T06:08:23.018Z,19.78
2016-04-02T06:09:23.021Z,19.68
2016-04-02T06:10:23.023Z,19.78
2016-04-02T06:11:23.026Z,19.68
2016-04-02T06:12:23.044Z,19.58
2016-04-02T06:13:23.031Z,19.77
2016-04-02T06:14:23.050Z,19.68
2016-04-02T06:15:23.053Z,19.77
2016-04-02T06:16:23.056Z,20.06
2016-04-02T06:17:23.074Z,19.38
2016-04-02T06:18:23.061Z,19.77
2016-04-02T06:19:23.079Z,19.78
2016-04-02T06:20:23.081Z,19.68
2016-04-02T06:21:23.084Z,19.58
2016-04-02T06:22:23.103Z,19.68
2016-04-02T06:23:23.105Z,19.68
2016-04-02T06:24:23.108Z,19.48
2016-04-02T06:25:23.110Z,19.77
2016-04-02T06:26:23.113Z,19.77
2016-04-02T06:27:23.132Z,19.68
2016-04-02T06:28:23.134Z,19.78
2016-04-02T06:29:23.152Z,19.68
2016-04-02T06:30:23.140Z,19.38
2016-04-02T06:31:23.157Z,19.68
2016-04-02T06:32:23.146Z,19.48
2016-04-02T06:33:23.163Z,19.77
2016-04-02T06:34:23.166Z,19.77
2016-04-02T06:35:23.184Z,19.68
2016-04-02T06:36:23.171Z,19.48
2016-04-02T06:37:23.174Z,19.77
2016-04-02T06:38:23.193Z,19.68
2016-04-02T06:39:23.196Z,19.4
2016-04-02T06:40:23.199Z,19.78
2016-04-02T06:41:23.201Z,19.68
2016-04-02T06:42:23.204Z,19.68
2016-04-02T06:43:23.223Z,19.68
2016-04-02T06:44:23.225Z,19.68
2016-04-02T06:45:23.228Z,19.48
2016-04-02T06:46:23.230Z,19.48
2016-04-02T06:47:23.248Z,20.07
2016-04-02T06:48:23.236Z,19.49
2016-04-02T06:49:23.253Z,19.68
2016-04-02T06:50:23.256Z,19.59
2016-04-02T06:51:23.258Z,19.48
2016-04-02T06:52:23.277Z,19.98
2016-04-02T06:53:23.280Z,19.49
2016-04-02T06:54:23.298Z,19.49
2016-04-02T06:55:23.286Z,19.68
2016-04-02T06:56:23.303Z,19.49
2016-04-02T06:57:23.306Z,19.59
2016-04-02T06:58:23.308Z,19.59
2016-04-02T06:59:23.311Z,19.68
2016-04-02T07:00:23.330Z,19.98
2016-04-02T07:01:23.332Z,19.68
2016-04-02T07:02:23.351Z,19.59
2016-04-02T07:03:23.337Z,19.1
2016-04-02T07:04:23.340Z,19.01
2016-04-02T07:05:23.343Z,19.59
2016-04-02T07:06:23.346Z,19.1
2016-04-02T07:07:23.239Z,19.3
2016-04-02T07:08:23.368Z,19.3
2016-04-02T07:09:23.370Z,19.1
2016-04-02T07:10:23.388Z,18.91
2016-04-02T07:11:23.391Z,19.2
2016-04-02T07:12:23.393Z,19.49
2016-04-02T07:13:23.396Z,19.01
2016-04-02T07:14:23.431Z,19.68
2016-04-02T07:15:23.417Z,19.1
2016-04-02T07:16:23.420Z,19.01
2016-04-02T07:17:23.423Z,19.01
2016-04-02T07:18:23.425Z,19.59
2016-04-02T07:19:23.428Z,19.2
2016-04-02T07:20:23.447Z,19.68
2016-04-02T07:21:23.449Z,18.91
2016-04-02T07:22:23.452Z,19.1
2016-04-02T07:23:23.455Z,19.01
2016-04-02T07:24:23.457Z,19.01
2016-04-02T07:25:23.475Z,19.3
2016-04-02T07:26:23.477Z,19.3
2016-04-02T07:27:23.480Z,19.2
2016-04-02T07:28:23.499Z,19.2
2016-04-02T07:29:23.502Z,19.01
2016-04-02T07:30:23.505Z,18.91
2016-04-02T07:31:23.507Z,19.2
2016-04-02T07:32:23.510Z,19.01
2016-04-02T07:33:23.527Z,19.01
2016-04-02T07:34:23.530Z,19.01
2016-04-02T07:35:23.533Z,19.3
2016-04-02T07:36:23.536Z,19.3
2016-04-02T07:37:23.554Z,19.2
2016-04-02T07:38:23.557Z,19.1
2016-04-02T07:39:23.575Z,18.73
2016-04-02T07:40:23.578Z,18.82
2016-04-02T07:41:23.581Z,18.82
2016-04-02T07:42:23.584Z,18.73
2016-04-02T07:43:23.602Z,18.35
2016-04-02T07:44:23.604Z,17.97
2016-04-02T07:45:23.607Z,18.06
2016-04-02T07:46:23.609Z,18.16
2016-04-02T07:47:23.612Z,18.06
2016-04-02T07:48:23.631Z,17.88
2016-04-02T07:49:23.633Z,17.88
2016-04-02T07:50:23.637Z,17.68
2016-04-02T07:51:23.639Z,17.68
2016-04-02T07:52:23.658Z,17.59
2016-04-02T07:53:23.661Z,17.4
2016-04-02T07:54:23.663Z,16.91
2016-04-02T07:55:23.666Z,17.1
2016-04-02T07:56:23.668Z,17.31
2016-04-02T07:57:23.686Z,17.1
2016-04-02T07:58:23.688Z,17.21
2016-04-02T07:59:23.691Z,16.92
2016-04-02T08:00:23.694Z,17.02
2016-04-02T08:01:23.713Z,16.91
2016-04-02T08:02:23.716Z,16.92
2016-04-02T08:03:23.734Z,16.72
2016-04-02T08:04:23.721Z,16.44
2016-04-02T08:05:23.739Z,16.53
2016-04-02T08:06:23.741Z,16.63
2016-04-02T08:07:23.760Z,16.82
2016-04-02T08:08:23.746Z,16.63
2016-04-02T08:09:23.765Z,16.53
2016-04-02T08:10:23.768Z,16.63
2016-04-02T08:11:23.770Z,16.64
2016-04-02T08:12:23.789Z,16.64
2016-04-02T08:13:23.792Z,16.72
2016-04-02T08:14:23.795Z,16.63
2016-04-02T08:15:23.813Z,16.72
2016-04-02T08:16:23.815Z,16.74
2016-04-02T08:17:23.818Z,16.34
2016-04-02T08:18:23.820Z,16.54
2016-04-02T08:19:23.839Z,16.44
2016-04-02T08:20:23.842Z,15.77
2016-04-02T08:21:23.845Z,15.96
2016-04-02T08:22:23.848Z,16.16
2016-04-02T08:23:23.850Z,15.77
2016-04-02T08:24:23.884Z,15.87
2016-04-02T08:25:23.871Z,15.86
2016-04-02T08:26:23.874Z,15.96
2016-04-02T08:27:23.891Z,15.86
2016-04-02T08:28:23.894Z,15.86
2016-04-02T08:29:23.897Z,15.96
2016-04-02T08:30:23.916Z,15.38
2016-04-02T08:31:23.919Z,13.27
2016-04-02T08:32:23.936Z,11.65
2016-04-02T08:33:23.939Z,10.5
2016-04-02T08:34:23.941Z,10.22
2016-04-02T08:35:23.976Z,9.83
2016-04-02T08:36:23.962Z,9.83
2016-04-02T08:37:23.981Z,9.55
2016-04-02T08:38:23.984Z,9.64
2016-04-02T08:39:24.002Z,9.74
2016-04-02T08:40:24.020Z,9.35
2016-04-02T08:41:24.024Z,9.55
2016-04-02T08:42:24.057Z,9.45
2016-04-02T08:43:24.045Z,9.25
2016-04-02T08:44:24.062Z,9.35
2016-04-02T08:45:24.065Z,9.93
2016-04-02T08:46:24.099Z,10.41
2016-04-02T08:47:24.087Z,10.13
2016-04-02T08:48:24.120Z,10.41
2016-04-02T08:49:26.170Z,10.22
2016-04-02T08:50:24.125Z,10.89
2016-04-02T08:51:24.144Z,10.12
2016-04-02T08:52:24.162Z,10.51
2016-04-02T08:53:24.164Z,10.61
2016-04-02T08:54:24.183Z,10.7
2016-04-02T08:55:24.170Z,10.99
2016-04-02T08:56:24.189Z,11.08
2016-04-02T08:57:24.208Z,10.99
2016-04-02T08:58:24.210Z,11.66
2016-04-02T08:59:24.228Z,11.86
2016-04-02T09:00:24.230Z,12.52
2016-04-02T09:01:24.249Z,13.97
2016-04-02T09:02:24.235Z,14.83
2016-04-02T09:03:24.270Z,15.39
2016-04-02T09:04:24.257Z,15.88
2016-04-02T09:05:24.275Z,15.58
2016-04-02T09:06:24.277Z,16.06
2016-04-02T09:07:24.296Z,16.16
2016-04-02T09:08:24.298Z,16.36
2016-04-02T09:09:24.301Z,15.87
2016-04-02T09:10:24.320Z,15.96
2016-04-02T09:11:24.323Z,16.25
2016-04-02T09:12:24.326Z,16.06
2016-04-02T09:13:24.343Z,16.16
2016-04-02T09:14:24.346Z,16.54
2016-04-02T09:15:24.349Z,16.35
2016-04-02T09:16:24.368Z,16.35
2016-04-02T09:17:24.371Z,16.25
2016-04-02T09:18:24.389Z,16.35
2016-04-02T09:19:24.392Z,16.74
2016-04-02T09:20:24.425Z,16.64
2016-04-02T09:21:24.412Z,16.64
2016-04-02T09:22:24.414Z,16.74
2016-04-02T09:23:24.417Z,16.64
2016-04-02T09:24:24.436Z,16.44
2016-04-02T09:25:24.439Z,16.54
2016-04-02T09:26:24.442Z,16.64
2016-04-02T09:27:24.459Z,16.64
2016-04-02T09:28:24.478Z,16.64
2016-04-02T09:29:24.480Z,16.83
2016-04-02T09:30:24.483Z,16.74
2016-04-02T09:31:24.548Z,16.64
2016-04-02T09:32:24.504Z,16.74
2016-04-02T09:33:24.507Z,16.74
2016-04-02T09:34:24.510Z,16.64
2016-04-02T09:35:24.528Z,16.83
2016-04-02T09:36:24.530Z,16.83
2016-04-02T09:37:24.533Z,16.83
2016-04-02T09:38:24.551Z,16.64
2016-04-02T09:39:24.555Z,16.92
2016-04-02T09:40:24.573Z,16.83
2016-04-02T09:41:24.560Z,16.54
2016-04-02T09:42:24.578Z,16.74
2016-04-02T09:43:24.596Z,16.64
2016-04-02T09:44:24.584Z,16.53
2016-04-02T09:45:24.601Z,16.64
2016-04-02T09:46:24.620Z,16.63
2016-04-02T09:47:24.622Z,16.53
2016-04-02T09:48:24.641Z,16.83
2016-04-02T09:49:24.628Z,16.44
2016-04-02T09:50:24.631Z,16.83
2016-04-02T09:51:24.648Z,16.82
2016-04-02T09:52:24.667Z,16.63
2016-04-02T09:53:24.670Z,16.72
2016-04-02T09:54:24.672Z,16.92
2016-04-02T09:55:24.691Z,16.83
2016-04-02T09:56:24.678Z,16.83
2016-04-02T09:57:24.697Z,16.54
2016-04-02T09:58:24.715Z,16.44
2016-04-02T09:59:24.702Z,16.44
2016-04-02T10:00:24.720Z,16.64
2016-04-02T10:01:24.722Z,16.93
2016-04-02T10:02:24.741Z,16.54
2016-04-02T10:03:24.760Z,16.63
2016-04-02T10:04:24.747Z,17.11
2016-04-02T10:05:24.781Z,17.02
2016-04-02T10:06:24.768Z,17.21
2016-04-02T10:07:24.771Z,16.92
2016-04-02T10:08:24.788Z,17.02
2016-04-02T10:09:24.791Z,17.02
2016-04-02T10:10:24.793Z,17.21
2016-04-02T10:11:24.812Z,17.21
2016-04-02T10:12:24.799Z,17.21
2016-04-02T10:13:24.818Z,17.11
2016-04-02T10:14:24.836Z,17.02
2016-04-02T10:15:24.838Z,17.21
2016-04-02T10:16:24.857Z,17.31
2016-04-02T10:17:24.843Z,17.21
2016-04-02T10:18:24.878Z,17.21
2016-04-02T10:19:24.864Z,17.5
2016-04-02T10:20:24.883Z,17.31
2016-04-02T10:21:24.886Z,17.21
2016-04-02T10:22:24.904Z,17.31
2016-04-02T10:23:24.892Z,17.31
2016-04-02T10:24:24.909Z,17.4
2016-04-02T10:25:24.912Z,17.4
2016-04-02T10:26:24.930Z,17.31
2016-04-02T10:27:24.933Z,17.11
2016-04-02T10:28:24.936Z,17.02
2016-04-02T10:29:24.939Z,16.92
2016-04-02T10:30:24.958Z,16.92
2016-04-02T10:31:24.960Z,17.02
2016-04-02T10:32:24.963Z,17.6
2016-04-02T10:33:24.965Z,17.6
2016-04-02T10:34:24.983Z,17.69
2016-04-02T10:35:24.985Z,17.69
2016-04-02T10:36:24.988Z,17.59
2016-04-02T10:37:25.007Z,17.6
2016-04-02T10:38:25.010Z,17.68
2016-04-02T10:39:25.013Z,17.69
2016-04-02T10:40:25.030Z,17.69
2016-04-02T10:41:25.033Z,17.69
2016-04-02T10:42:25.052Z,17.79
2016-04-02T10:43:25.038Z,17.79
2016-04-02T10:44:25.057Z,17.88
2016-04-02T10:45:25.059Z,17.79
2016-04-02T10:46:25.062Z,17.69
2016-04-02T10:47:25.081Z,17.59
2016-04-02T10:48:25.099Z,17.79
2016-04-02T10:49:25.102Z,17.79
2016-04-02T10:50:25.104Z,17.79
2016-04-02T10:51:25.107Z,17.78
2016-04-02T10:52:25.125Z,17.88
2016-04-02T10:53:25.129Z,17.79
2016-04-02T10:54:25.131Z,17.89
2016-04-02T10:55:25.134Z,17.78
2016-04-02T10:56:25.153Z,17.78
2016-04-02T10:57:25.170Z,17.79
2016-04-02T10:58:25.173Z,17.89
2016-04-02T10:59:25.175Z,17.69
2016-04-02T11:00:25.194Z,17.97
2016-04-02T11:01:25.180Z,17.49
2016-04-02T11:02:25.173Z,17.68
2016-04-02T11:03:25.242Z,17.88
2016-04-02T11:04:25.172Z,17.88
2016-04-02T11:05:25.226Z,17.68
2016-04-02T11:06:25.170Z,17.98
2016-04-02T11:07:25.168Z,17.68
2016-04-02T11:08:25.183Z,17.68
2016-04-02T11:09:25.181Z,18.08
2016-04-02T11:10:25.195Z,18.07
2016-04-02T11:11:25.179Z,17.49
2016-04-02T11:12:25.194Z,18.07
2016-04-02T11:13:25.195Z,17.68
2016-04-02T11:14:25.196Z,17.88
2016-04-02T11:15:25.197Z,18.07
2016-04-02T11:16:25.213Z,18.07
2016-04-02T11:17:25.214Z,18.07
2016-04-02T11:18:25.217Z,18.07
2016-04-02T11:19:25.236Z,18.07
2016-04-02T11:20:25.254Z,17.97
2016-04-02T11:21:25.240Z,18.07
2016-04-02T11:22:25.367Z,17.59
2016-04-02T11:23:25.261Z,18.07
2016-04-02T11:24:25.264Z,17.97
2016-04-02T11:25:25.282Z,18.17
2016-04-02T11:26:25.285Z,18.07
2016-04-02T11:27:25.303Z,17.98
2016-04-02T11:28:25.306Z,17.97
2016-04-02T11:29:25.308Z,17.97
2016-04-02T11:30:25.311Z,18.07
2016-04-02T11:31:25.329Z,17.88
2016-04-02T11:32:25.331Z,17.88
2016-04-02T11:33:25.334Z,17.78
2016-04-02T11:34:25.353Z,17.97
2016-04-02T11:35:25.340Z,17.78
2016-04-02T11:36:25.359Z,18.26
2016-04-02T11:37:25.361Z,18.17
2016-04-02T11:38:25.364Z,18.26
2016-04-02T11:39:25.382Z,18.26
2016-04-02T11:40:25.385Z,18.26
2016-04-02T11:41:25.387Z,18.17
2016-04-02T11:42:25.405Z,18.07
2016-04-02T11:43:25.408Z,18.26
2016-04-02T11:44:25.426Z,18.26
2016-04-02T11:45:25.414Z,18.26
2016-04-02T11:46:25.432Z,18.07
2016-04-02T11:47:25.435Z,18.17
2016-04-02T11:48:25.437Z,18.07
2016-04-02T11:49:25.440Z,18.26
2016-04-02T11:50:25.459Z,18.17
2016-04-02T11:51:25.462Z,17.97
2016-04-02T11:52:25.465Z,18.17
2016-04-02T11:53:25.326Z,17.97
2016-04-02T11:54:25.485Z,17.97
2016-04-02T11:55:25.503Z,18.07
2016-04-02T11:56:25.506Z,18.07
2016-04-02T11:57:25.523Z,18.17
2016-04-02T11:58:25.511Z,18.07
2016-04-02T11:59:25.529Z,18.07
2016-04-02T12:00:25.531Z,18.26
2016-04-02T12:01:25.535Z,17.88
2016-04-02T12:02:25.553Z,17.88
2016-04-02T12:03:25.540Z,17.97
2016-04-02T12:04:25.558Z,17.78
2016-04-02T12:05:25.561Z,17.88
2016-04-02T12:06:25.580Z,17.78
2016-04-02T12:07:25.582Z,17.88
2016-04-02T12:08:25.600Z,17.88
2016-04-02T12:09:25.587Z,17.88
2016-04-02T12:10:25.449Z,17.78
2016-04-02T12:11:25.608Z,17.88
2016-04-02T12:12:25.611Z,17.97
2016-04-02T12:13:25.614Z,18.17
2016-04-02T12:14:25.632Z,17.97
2016-04-02T12:15:25.666Z,17.97
2016-04-02T12:16:25.638Z,18.17
2016-04-02T12:17:25.656Z,18.17
2016-04-02T12:18:25.660Z,18.17
2016-04-02T12:19:25.662Z,18.26
2016-04-02T12:20:25.665Z,18.26
2016-04-02T12:21:25.682Z,18.17
2016-04-02T12:22:25.685Z,18.36
2016-04-02T12:23:25.704Z,18.36
2016-04-02T12:24:25.690Z,18.17
2016-04-02T12:25:25.709Z,18.07
2016-04-02T12:26:25.711Z,18.07
2016-04-02T12:27:25.715Z,18.07
2016-04-02T12:28:25.732Z,17.88
2016-04-02T12:29:25.735Z,17.97
2016-04-02T12:30:25.738Z,17.97
2016-04-02T12:31:25.756Z,17.68
2016-04-02T12:32:25.759Z,17.78
2016-04-02T12:33:25.761Z,18.07
2016-04-02T12:34:25.764Z,18.07
2016-04-02T12:35:25.782Z,18.07
2016-04-02T12:36:25.785Z,18.07
2016-04-02T12:37:25.803Z,17.78
2016-04-02T12:38:25.806Z,17.68
2016-04-02T12:39:25.809Z,17.88
2016-04-02T12:40:25.811Z,17.97
2016-04-02T12:41:25.830Z,18.26
2016-04-02T12:42:25.832Z,18.07
2016-04-02T12:43:25.836Z,18.26
2016-04-02T12:44:25.838Z,18.07
2016-04-02T12:45:25.857Z,17.97
2016-04-02T12:46:25.860Z,18.36
2016-04-02T12:47:25.877Z,17.97
2016-04-02T12:48:25.880Z,18.17
2016-04-02T12:49:25.883Z,17.97
2016-04-02T12:50:25.885Z,18.26
2016-04-02T12:51:25.888Z,17.97
2016-04-02T12:52:25.906Z,17.97
2016-04-02T12:53:25.910Z,18.07
2016-04-02T12:54:25.927Z,17.88
2016-04-02T12:55:25.915Z,17.88
2016-04-02T12:56:25.933Z,17.88